Vejle, Denmark
Current Conditions -  °F | °C
As of 9:20 AM on Tuesday 27 Jan 2015 (Local Time) from EKBI Reporting Station
Clear Clear  
Wind Chill: 28°   Ceiling: Unl
Heat Index: 36°   Visibility: 6mi
Dew Point: 32°   Wind: 12mph
Humidity: 87%   Direction: 300°WNW
Pressure: 29.91"   Gusts: NA
Location:  55.71°N, 9.54°E
Report Text: EKBI 270820Z 30010KT CAVOK 02/M00 Q1013 R09/710195
Loading
Personal Weather Stations






























Interactive Weather Map New forecast layout! Learn more

10-Day Weather Forecast

Advertisements
Track Severe Weather on mobile